createdAt,value
2022-12-07T00:01:28.321Z,17.90
2022-12-07T00:04:01.539Z,18.13
2022-12-07T00:06:28.751Z,18.98
2022-12-07T00:08:56.343Z,18.08
2022-12-07T00:11:24.885Z,17.13
2022-12-07T00:13:57.510Z,18.27
2022-12-07T00:16:28.109Z,17.45
2022-12-07T00:18:55.775Z,18.90
2022-12-07T00:21:26.044Z,17.23
2022-12-07T00:23:54.992Z,19.02
2022-12-07T00:26:27.777Z,18.25
2022-12-07T00:28:58.148Z,17.80
2022-12-07T00:31:28.999Z,17.52
2022-12-07T00:33:56.840Z,18.10
2022-12-07T00:36:27.156Z,18.35
2022-12-07T00:38:56.220Z,16.87
2022-12-07T00:41:25.787Z,18.20
2022-12-07T00:43:53.656Z,18.80
2022-12-07T00:46:22.546Z,17.77
2022-12-07T00:48:50.687Z,19.75
2022-12-07T00:51:19.464Z,18.75
2022-12-07T00:53:47.279Z,19.17
2022-12-07T00:56:17.227Z,18.67
2022-12-07T00:58:44.736Z,18.02
2022-12-07T01:01:12.305Z,19.08
2022-12-07T01:03:39.758Z,19.08
2022-12-07T01:06:07.362Z,18.02
2022-12-07T01:08:34.584Z,20.00
2022-12-07T01:11:04.708Z,19.05
2022-12-07T01:13:32.815Z,19.23
2022-12-07T01:16:01.803Z,18.83
2022-12-07T01:18:30.922Z,20.45
2022-12-07T01:21:08.936Z,18.65
2022-12-07T01:23:36.862Z,18.63
2022-12-07T01:26:07.523Z,18.70
2022-12-07T01:28:34.789Z,18.95
2022-12-07T01:31:18.273Z,18.15
2022-12-07T01:33:48.493Z,17.90
2022-12-07T01:36:31.392Z,18.40
2022-12-07T01:39:01.559Z,18.42
2022-12-07T01:41:32.206Z,18.08
2022-12-07T01:44:16.458Z,17.05
2022-12-07T01:46:56.754Z,18.38
2022-12-07T01:49:44.812Z,18.85
2022-12-07T01:52:18.725Z,17.80
2022-12-07T01:54:47.761Z,18.60
2022-12-07T01:57:16.900Z,18.67
2022-12-07T01:59:45.929Z,18.85
2022-12-07T02:02:23.874Z,18.63
2022-12-07T02:04:54.247Z,19.13
2022-12-07T02:07:22.703Z,18.70
2022-12-07T02:09:50.020Z,21.63
2022-12-07T02:12:17.524Z,20.00
2022-12-07T02:14:44.741Z,19.73
2022-12-07T02:17:19.699Z,18.85
2022-12-07T02:20:12.268Z,20.55
2022-12-07T02:22:39.431Z,19.90
2022-12-07T02:25:38.491Z,20.90
2022-12-07T02:28:14.678Z,21.45
2022-12-07T02:30:47.942Z,18.00
2022-12-07T02:33:51.035Z,20.20
2022-12-07T02:36:31.270Z,19.60
2022-12-07T02:39:04.112Z,20.20
2022-12-07T02:41:45.054Z,20.77
2022-12-07T02:44:15.730Z,20.38
2022-12-07T02:46:48.232Z,21.30
2022-12-07T02:49:16.167Z,21.17
2022-12-07T02:51:46.714Z,21.02
2022-12-07T02:54:17.191Z,20.63
2022-12-07T02:57:01.463Z,19.30
2022-12-07T02:59:57.456Z,20.13
2022-12-07T03:02:27.406Z,20.33
2022-12-07T03:04:55.164Z,20.07
2022-12-07T03:07:27.706Z,20.50
2022-12-07T03:10:07.083Z,19.70
2022-12-07T03:13:26.560Z,20.83
2022-12-07T03:15:56.823Z,21.80
2022-12-07T03:18:26.979Z,20.03
2022-12-07T03:20:57.809Z,22.88
2022-12-07T03:23:27.434Z,21.00
2022-12-07T03:26:00.806Z,20.15
2022-12-07T03:28:33.298Z,18.92
2022-12-07T03:31:20.862Z,21.42
2022-12-07T03:34:18.824Z,20.15
2022-12-07T03:36:55.164Z,19.27
2022-12-07T03:39:42.059Z,18.92
2022-12-07T03:42:11.305Z,19.07
2022-12-07T03:44:39.539Z,19.07
2022-12-07T03:47:09.804Z,22.83
2022-12-07T03:50:07.046Z,19.27
2022-12-07T03:52:40.287Z,19.52
2022-12-07T03:55:21.401Z,19.88
2022-12-07T03:57:52.734Z,19.33
2022-12-07T04:00:20.515Z,18.55
2022-12-07T04:02:48.363Z,20.02
2022-12-07T04:05:15.648Z,21.70
2022-12-07T04:07:43.067Z,18.63
2022-12-07T04:10:13.573Z,19.17
2022-12-07T04:12:40.916Z,20.17
2022-12-07T04:15:08.887Z,18.13
2022-12-07T04:17:36.134Z,18.50
2022-12-07T04:20:05.098Z,21.35
2022-12-07T04:22:32.678Z,18.90
2022-12-07T04:24:59.947Z,20.03
2022-12-07T04:27:27.257Z,18.83
2022-12-07T04:29:54.620Z,19.75
2022-12-07T04:32:22.194Z,18.70
2022-12-07T04:34:54.029Z,18.50
2022-12-07T04:37:23.363Z,19.57
2022-12-07T04:39:50.500Z,18.67
2022-12-07T04:42:17.748Z,20.40
2022-12-07T04:44:45.562Z,20.75
2022-12-07T04:47:12.870Z,18.92
2022-12-07T04:49:40.125Z,19.38
2022-12-07T04:52:07.392Z,19.25
2022-12-07T04:54:34.731Z,18.65
2022-12-07T04:57:01.985Z,20.17
2022-12-07T04:59:29.295Z,23.13
2022-12-07T05:01:56.505Z,22.38
2022-12-07T05:04:23.735Z,20.75
2022-12-07T05:06:50.918Z,20.93
2022-12-07T05:09:18.170Z,19.10
2022-12-07T05:11:45.456Z,19.35
2022-12-07T05:14:19.101Z,20.30
2022-12-07T05:16:48.705Z,18.97
2022-12-07T05:19:16.418Z,18.55
2022-12-07T05:21:43.715Z,21.58
2022-12-07T05:24:13.464Z,19.45
2022-12-07T05:26:41.313Z,19.80
2022-12-07T05:29:11.006Z,20.85
2022-12-07T05:31:38.183Z,20.42
2022-12-07T05:34:05.396Z,20.45
2022-12-07T05:36:32.796Z,19.25
2022-12-07T05:39:00.435Z,19.08
2022-12-07T05:41:46.480Z,20.42
2022-12-07T05:44:13.981Z,21.00
2022-12-07T05:46:41.199Z,18.42
2022-12-07T05:49:08.453Z,19.38
2022-12-07T05:51:35.638Z,20.60
2022-12-07T05:54:02.840Z,19.10
2022-12-07T05:56:30.067Z,18.77
2022-12-07T05:59:15.688Z,18.65
2022-12-07T06:01:43.035Z,19.92
2022-12-07T06:04:10.409Z,18.38
2022-12-07T06:06:38.120Z,20.13
2022-12-07T06:09:05.561Z,19.33
2022-12-07T06:11:51.169Z,19.60
2022-12-07T06:14:18.422Z,19.30
2022-12-07T06:16:45.714Z,19.38
2022-12-07T06:19:13.033Z,20.80
2022-12-07T06:21:40.571Z,20.07
2022-12-07T06:24:07.927Z,18.67
2022-12-07T06:26:35.119Z,19.35
2022-12-07T06:29:02.348Z,17.43
2022-12-07T06:31:29.698Z,18.87
2022-12-07T06:34:05.548Z,18.50
2022-12-07T06:36:33.350Z,17.48
2022-12-07T06:39:00.564Z,18.00
2022-12-07T06:41:27.849Z,18.90
2022-12-07T06:43:56.412Z,18.50
2022-12-07T06:46:24.781Z,18.75
2022-12-07T06:48:52.022Z,18.05
2022-12-07T06:51:19.850Z,19.33
2022-12-07T06:53:47.029Z,19.13
2022-12-07T06:56:14.276Z,19.13
2022-12-07T06:58:42.019Z,18.77
2022-12-07T07:01:13.840Z,20.08
2022-12-07T07:03:41.832Z,18.95
2022-12-07T07:06:09.364Z,18.70
2022-12-07T07:08:37.500Z,19.23
2022-12-07T07:11:05.318Z,19.42
2022-12-07T07:13:32.747Z,19.90
2022-12-07T07:16:00.411Z,19.95
2022-12-07T07:18:27.932Z,20.77
2022-12-07T07:20:55.764Z,19.97
2022-12-07T07:23:23.210Z,21.63
2022-12-07T07:25:50.565Z,21.55
2022-12-07T07:28:18.387Z,21.55
2022-12-07T07:30:46.158Z,21.90
2022-12-07T07:33:13.718Z,21.20
2022-12-07T07:35:41.112Z,21.55
2022-12-07T07:38:08.982Z,21.05
2022-12-07T07:40:36.908Z,19.30
2022-12-07T07:43:04.160Z,19.45
2022-12-07T07:45:31.585Z,18.45
2022-12-07T07:47:58.933Z,18.40
2022-12-07T07:50:26.172Z,18.55
2022-12-07T07:52:53.573Z,18.30
2022-12-07T07:55:20.799Z,18.67
2022-12-07T07:57:54.192Z,19.20
2022-12-07T08:00:22.546Z,19.37
2022-12-07T08:02:49.869Z,18.75
2022-12-07T08:05:17.681Z,19.60
2022-12-07T08:07:45.413Z,19.43
2022-12-07T08:10:13.970Z,18.40
2022-12-07T08:13:02.275Z,20.25
2022-12-07T08:15:31.707Z,18.50
2022-12-07T08:17:59.852Z,18.00
2022-12-07T08:20:27.236Z,17.83
2022-12-07T08:22:54.614Z,19.27
2022-12-07T08:25:25.067Z,18.57
2022-12-07T08:27:52.613Z,19.00
2022-12-07T08:30:20.001Z,19.60
2022-12-07T08:32:48.371Z,19.50
2022-12-07T08:35:15.925Z,18.95
2022-12-07T08:37:43.433Z,18.98
2022-12-07T08:40:15.886Z,18.50
2022-12-07T08:42:45.435Z,18.52
2022-12-07T08:45:15.490Z,17.83
2022-12-07T08:47:51.185Z,18.67
2022-12-07T08:50:19.173Z,17.40
2022-12-07T08:52:51.507Z,17.60
2022-12-07T08:55:19.150Z,18.17
2022-12-07T08:57:46.460Z,18.65
2022-12-07T09:00:14.803Z,17.20
2022-12-07T09:02:42.016Z,16.90
2022-12-07T09:05:14.843Z,17.63
2022-12-07T09:07:46.444Z,18.35
2022-12-07T09:10:13.843Z,17.27
2022-12-07T09:12:41.104Z,10.52
2022-12-07T09:15:09.148Z,9.43
2022-12-07T09:17:37.180Z,9.48
2022-12-07T09:20:06.662Z,9.60
2022-12-07T09:22:34.399Z,7.43
2022-12-07T09:25:03.643Z,8.83
2022-12-07T09:27:31.494Z,8.20
2022-12-07T09:29:58.665Z,8.38
2022-12-07T09:32:25.861Z,6.78
2022-12-07T09:34:53.170Z,5.43
2022-12-07T09:37:22.680Z,10.05
2022-12-07T09:39:50.639Z,7.15
2022-12-07T09:42:36.483Z,6.55
2022-12-07T09:45:08.301Z,6.28
2022-12-07T09:47:35.576Z,7.47
2022-12-07T09:50:13.390Z,7.43
2022-12-07T09:52:42.151Z,8.27
2022-12-07T09:55:13.971Z,7.85
2022-12-07T09:57:42.528Z,7.10
2022-12-07T10:00:19.170Z,7.27
2022-12-07T10:02:57.714Z,8.48
2022-12-07T10:05:39.468Z,5.55
2022-12-07T10:08:11.016Z,7.03
2022-12-07T10:10:39.727Z,7.77
2022-12-07T10:13:13.234Z,5.82
2022-12-07T10:16:05.028Z,8.27
2022-12-07T10:18:42.536Z,6.80
2022-12-07T10:21:12.422Z,6.77
2022-12-07T10:24:11.977Z,7.05
2022-12-07T10:26:52.757Z,7.57
2022-12-07T10:29:25.507Z,8.23
2022-12-07T10:31:59.320Z,8.98
2022-12-07T10:34:41.441Z,6.97
2022-12-07T10:37:20.886Z,9.27
2022-12-07T10:39:56.455Z,8.93
2022-12-07T10:42:26.257Z,10.23
2022-12-07T10:45:22.922Z,8.57
2022-12-07T10:48:00.858Z,8.50
2022-12-07T10:50:46.271Z,9.00
2022-12-07T10:53:43.712Z,8.20
2022-12-07T10:56:16.822Z,7.90
2022-12-07T10:59:17.283Z,9.13
2022-12-07T11:02:16.304Z,8.18
2022-12-07T11:05:20.786Z,7.68
2022-12-07T11:08:05.002Z,7.72
2022-12-07T11:10:49.643Z,7.03
2022-12-07T11:13:29.400Z,7.07
2022-12-07T11:16:34.137Z,8.13
2022-12-07T11:19:32.420Z,7.90
2022-12-07T11:22:09.987Z,8.30
2022-12-07T11:24:45.937Z,8.50
2022-12-07T11:27:38.097Z,9.20
2022-12-07T11:30:14.423Z,10.30
2022-12-07T11:33:05.778Z,8.13
2022-12-07T11:36:17.751Z,8.65
2022-12-07T11:38:53.130Z,9.38
2022-12-07T11:41:27.884Z,10.50
2022-12-07T11:43:57.461Z,8.20
2022-12-07T11:46:37.188Z,9.77
2022-12-07T11:49:22.216Z,9.05
2022-12-07T11:51:53.949Z,11.68
2022-12-07T11:54:27.949Z,9.45
2022-12-07T11:57:00.481Z,7.43
2022-12-07T11:59:51.151Z,8.35
2022-12-07T12:02:26.453Z,7.05
2022-12-07T12:05:23.636Z,8.63
2022-12-07T12:11:00.517Z,6.10
2022-12-07T12:16:51.407Z,7.05
2022-12-07T12:19:35.831Z,7.13
2022-12-07T12:22:18.440Z,6.13
2022-12-07T12:24:52.028Z,5.28
2022-12-07T12:27:28.646Z,7.00
2022-12-07T12:29:59.931Z,5.00
2022-12-07T12:32:41.228Z,5.53
2022-12-07T12:35:37.457Z,5.63
2022-12-07T12:38:32.527Z,5.88
2022-12-07T12:41:00.493Z,6.95
2022-12-07T12:43:50.214Z,5.57
2022-12-07T12:46:34.492Z,5.85
2022-12-07T12:49:20.226Z,4.53
2022-12-07T12:51:58.977Z,5.88
2022-12-07T12:54:33.912Z,6.60
2022-12-07T12:57:05.805Z,5.47
2022-12-07T12:59:40.479Z,5.75
2022-12-07T13:02:33.739Z,4.93
2022-12-07T13:05:10.879Z,7.40
2022-12-07T13:07:56.479Z,6.47
2022-12-07T13:10:33.353Z,6.85
2022-12-07T13:13:15.576Z,5.77
2022-12-07T13:15:44.444Z,4.93
2022-12-07T13:18:37.573Z,4.80
2022-12-07T13:21:07.780Z,6.07
2022-12-07T13:23:47.202Z,5.20
2022-12-07T13:26:35.886Z,4.55
2022-12-07T13:29:24.136Z,5.20
2022-12-07T13:31:53.802Z,5.03
2022-12-07T13:34:38.704Z,4.05
2022-12-07T13:37:15.476Z,7.22
2022-12-07T13:39:52.052Z,6.20
2022-12-07T13:42:34.573Z,7.93
2022-12-07T13:45:55.933Z,4.47
2022-12-07T13:48:28.992Z,5.32
2022-12-07T13:50:59.734Z,5.40
2022-12-07T13:53:31.046Z,5.43
2022-12-07T13:56:00.146Z,5.30
2022-12-07T13:58:30.863Z,6.67
2022-12-07T14:00:59.217Z,5.78
2022-12-07T14:03:39.479Z,5.72
2022-12-07T14:06:27.900Z,6.28
2022-12-07T14:09:17.998Z,7.40
2022-12-07T14:11:48.887Z,5.00
2022-12-07T14:14:22.882Z,4.88
2022-12-07T14:17:19.325Z,5.30
2022-12-07T14:19:50.967Z,5.45
2022-12-07T14:22:29.063Z,5.50
2022-12-07T14:25:23.608Z,5.35
2022-12-07T14:27:53.912Z,4.50
2022-12-07T14:30:21.619Z,5.30
2022-12-07T14:32:55.636Z,7.63
2022-12-07T14:35:22.992Z,7.03
2022-12-07T14:37:50.987Z,9.40
2022-12-07T14:40:29.570Z,10.80
2022-12-07T14:43:17.748Z,13.00
2022-12-07T14:45:45.022Z,14.75
2022-12-07T14:53:55.461Z,15.93
2022-12-07T14:56:25.674Z,15.80
2022-12-07T14:58:53.044Z,13.90
2022-12-07T15:01:20.377Z,15.68
2022-12-07T15:03:47.655Z,16.52
2022-12-07T15:06:17.906Z,16.43
2022-12-07T15:08:45.521Z,15.03
2022-12-07T15:11:17.385Z,16.05
2022-12-07T15:14:03.564Z,16.35
2022-12-07T15:16:40.591Z,15.50
2022-12-07T15:19:29.179Z,16.30
2022-12-07T15:21:58.087Z,16.90
2022-12-07T15:24:25.390Z,18.42
2022-12-07T15:26:53.199Z,17.23
2022-12-07T15:29:23.247Z,17.08
2022-12-07T15:31:59.225Z,16.83
2022-12-07T15:34:30.929Z,18.17
2022-12-07T15:37:03.567Z,17.85
2022-12-07T15:39:30.852Z,17.17
2022-12-07T15:41:57.997Z,16.85
2022-12-07T15:44:43.867Z,17.70
2022-12-07T15:47:11.037Z,17.80
2022-12-07T15:49:38.277Z,17.95
2022-12-07T15:52:05.551Z,17.13
2022-12-07T15:54:33.321Z,16.85
2022-12-07T15:57:00.736Z,16.95
2022-12-07T15:59:28.877Z,17.27
2022-12-07T16:01:56.854Z,18.15
2022-12-07T16:04:24.407Z,18.40
2022-12-07T16:06:52.093Z,17.48
2022-12-07T16:09:20.056Z,19.15
2022-12-07T16:11:47.323Z,18.23
2022-12-07T16:14:14.678Z,18.02
2022-12-07T16:16:42.635Z,17.17
2022-12-07T16:19:11.773Z,18.13
2022-12-07T16:21:39.045Z,18.70
2022-12-07T16:24:06.622Z,19.15
2022-12-07T16:26:34.262Z,18.48
2022-12-07T16:29:01.509Z,17.33
2022-12-07T16:31:29.422Z,17.88
2022-12-07T16:33:58.703Z,17.83
2022-12-07T16:37:01.979Z,17.20
2022-12-07T16:39:15.642Z,18.45
2022-12-07T16:41:42.906Z,16.88
2022-12-07T16:44:13.211Z,16.67
2022-12-07T16:46:40.954Z,17.10
2022-12-07T16:49:11.939Z,21.40
2022-12-07T16:51:39.605Z,18.45
2022-12-07T16:54:06.808Z,18.30
2022-12-07T16:56:34.023Z,21.13
2022-12-07T16:59:02.112Z,20.08
2022-12-07T17:01:30.307Z,17.17
2022-12-07T17:03:59.490Z,16.98
2022-12-07T17:06:28.845Z,17.42
2022-12-07T17:08:57.587Z,18.17
2022-12-07T17:11:31.783Z,17.98
2022-12-07T17:14:17.705Z,17.13
2022-12-07T17:16:45.054Z,17.63
2022-12-07T17:19:14.866Z,17.92
2022-12-07T17:21:43.172Z,18.05
2022-12-07T17:24:13.059Z,19.08
2022-12-07T17:26:41.335Z,19.13
2022-12-07T17:29:09.680Z,18.40
2022-12-07T17:31:37.464Z,19.13
2022-12-07T17:34:05.233Z,17.85
2022-12-07T17:36:33.161Z,17.70
2022-12-07T17:39:00.439Z,18.92
2022-12-07T17:41:47.698Z,19.63
2022-12-07T17:44:17.696Z,19.83
2022-12-07T17:46:47.139Z,19.33
2022-12-07T17:49:15.135Z,18.05
2022-12-07T17:52:01.298Z,19.65
2022-12-07T17:54:29.489Z,18.73
2022-12-07T17:56:56.809Z,19.17
2022-12-07T17:59:24.428Z,19.17
2022-12-07T18:01:52.356Z,17.73
2022-12-07T18:04:19.845Z,17.48
2022-12-07T18:06:51.812Z,17.55
2022-12-07T18:09:20.960Z,20.02
2022-12-07T18:11:48.169Z,17.70
2022-12-07T18:14:16.602Z,18.70
2022-12-07T18:16:44.277Z,18.47
2022-12-07T18:19:14.440Z,18.75
2022-12-07T18:21:41.988Z,19.10
2022-12-07T18:24:11.970Z,18.67
2022-12-07T18:26:39.859Z,19.20
2022-12-07T18:29:08.508Z,18.67
2022-12-07T18:31:36.545Z,19.15
2022-12-07T18:34:14.223Z,19.00
2022-12-07T18:36:42.813Z,20.10
2022-12-07T18:39:10.093Z,18.10
2022-12-07T18:41:38.468Z,19.77
2022-12-07T18:44:06.809Z,19.88
2022-12-07T18:46:35.248Z,18.40
2022-12-07T18:49:03.459Z,19.75
2022-12-07T18:51:32.559Z,18.73
2022-12-07T18:54:01.426Z,18.25
2022-12-07T18:56:29.239Z,18.42
2022-12-07T18:59:17.532Z,19.38
2022-12-07T19:01:50.809Z,20.10
2022-12-07T19:04:18.642Z,17.83
2022-12-07T19:06:47.778Z,18.70
2022-12-07T19:09:15.737Z,18.13
2022-12-07T19:11:52.471Z,17.23
2022-12-07T19:14:29.606Z,18.17
2022-12-07T19:16:59.294Z,18.90
2022-12-07T19:19:35.610Z,18.55
2022-12-07T19:22:03.492Z,20.07
2022-12-07T19:24:30.857Z,20.50
2022-12-07T19:26:58.516Z,21.20
2022-12-07T19:29:28.092Z,22.50
2022-12-07T19:31:55.409Z,20.30
2022-12-07T19:34:22.649Z,20.52
2022-12-07T19:36:50.044Z,21.20
2022-12-07T19:39:17.260Z,21.63
2022-12-07T19:41:45.443Z,20.65
2022-12-07T19:44:15.602Z,19.45
2022-12-07T19:46:46.542Z,21.30
2022-12-07T19:49:17.195Z,22.23
2022-12-07T19:51:50.431Z,20.73
2022-12-07T19:54:19.731Z,20.42
2022-12-07T19:56:47.974Z,21.90
2022-12-07T19:59:17.054Z,20.07
2022-12-07T20:01:44.390Z,21.05
2022-12-07T20:04:19.507Z,20.80
2022-12-07T20:06:49.313Z,20.67
2022-12-07T20:09:17.074Z,21.42
2022-12-07T20:12:02.770Z,20.70
2022-12-07T20:14:31.165Z,22.95
2022-12-07T20:16:59.222Z,24.48
2022-12-07T20:19:26.453Z,23.63
2022-12-07T20:21:53.753Z,23.88
2022-12-07T20:24:24.174Z,36.03
2022-12-07T20:26:53.060Z,27.20
2022-12-07T20:29:22.498Z,24.65
2022-12-07T20:31:51.626Z,23.27
2022-12-07T20:34:19.099Z,24.63
2022-12-07T20:36:46.823Z,30.35
2022-12-07T20:39:14.517Z,29.88
2022-12-07T20:42:00.586Z,24.30
2022-12-07T20:44:27.947Z,22.58
2022-12-07T20:46:55.457Z,21.33
2022-12-07T20:49:22.942Z,21.05
2022-12-07T20:51:51.003Z,20.23
2022-12-07T20:54:18.254Z,21.23
2022-12-07T20:56:45.629Z,20.08
2022-12-07T20:59:15.225Z,20.52
2022-12-07T21:01:43.189Z,21.05
2022-12-07T21:04:12.165Z,20.10
2022-12-07T21:06:39.637Z,21.63
2022-12-07T21:09:07.182Z,19.97
2022-12-07T21:11:34.456Z,20.27
2022-12-07T21:14:01.869Z,19.17
2022-12-07T21:16:30.639Z,21.42
2022-12-07T21:19:02.292Z,20.25
2022-12-07T21:21:30.798Z,20.00
2022-12-07T21:24:02.571Z,21.03
2022-12-07T21:26:33.804Z,20.95
2022-12-07T21:29:03.076Z,20.08
2022-12-07T21:31:30.539Z,20.77
2022-12-07T21:33:57.828Z,20.15
2022-12-07T21:36:26.761Z,20.42
2022-12-07T21:38:54.320Z,21.45
2022-12-07T21:41:24.254Z,19.63
2022-12-07T21:43:52.629Z,21.98
2022-12-07T21:46:21.640Z,20.30
2022-12-07T21:49:00.248Z,21.17
2022-12-07T21:51:29.589Z,24.05
2022-12-07T21:53:58.716Z,21.23
2022-12-07T21:56:32.578Z,22.70
2022-12-07T21:59:03.591Z,23.33
2022-12-07T22:01:35.552Z,22.40
2022-12-07T22:04:05.647Z,20.27
2022-12-07T22:06:34.558Z,20.63
2022-12-07T22:09:02.220Z,21.33
2022-12-07T22:11:29.404Z,20.45
2022-12-07T22:14:15.197Z,21.33
2022-12-07T22:16:42.697Z,20.45
2022-12-07T22:19:10.121Z,20.85
2022-12-07T22:21:37.390Z,21.48
2022-12-07T22:24:05.530Z,21.42
2022-12-07T22:26:33.239Z,21.92
2022-12-07T22:29:01.559Z,22.80
2022-12-07T22:31:29.321Z,23.20
2022-12-07T22:33:56.619Z,22.40
2022-12-07T22:36:23.805Z,22.77
2022-12-07T22:38:51.072Z,23.48
2022-12-07T22:41:29.987Z,23.83
2022-12-07T22:43:58.196Z,23.63
2022-12-07T22:46:26.548Z,22.80
2022-12-07T22:48:54.173Z,24.13
2022-12-07T22:51:30.368Z,22.88
2022-12-07T22:54:00.123Z,23.30
2022-12-07T22:56:28.889Z,23.23
2022-12-07T22:58:56.728Z,21.95
2022-12-07T23:01:24.745Z,22.75
2022-12-07T23:03:52.706Z,24.52
2022-12-07T23:06:25.688Z,22.45
2022-12-07T23:08:55.748Z,24.73
2022-12-07T23:11:44.679Z,23.15
2022-12-07T23:14:15.724Z,25.17
2022-12-07T23:16:43.110Z,23.77
2022-12-07T23:19:10.523Z,21.13
2022-12-07T23:21:37.781Z,21.15
2022-12-07T23:24:05.436Z,22.15
2022-12-07T23:26:34.787Z,20.88
2022-12-07T23:29:02.008Z,21.87
2022-12-07T23:31:29.283Z,21.77
2022-12-07T23:33:56.503Z,21.97
2022-12-07T23:36:26.180Z,22.10
2022-12-07T23:38:55.156Z,20.60
2022-12-07T23:41:28.746Z,21.08
2022-12-07T23:43:58.897Z,21.52
2022-12-07T23:46:29.736Z,20.67
2022-12-07T23:48:58.748Z,21.97
2022-12-07T23:51:25.975Z,22.13
2022-12-07T23:53:54.206Z,21.98
2022-12-07T23:56:24.211Z,21.77
2022-12-07T23:58:52.794Z,21.90
